Terminal Aerodrome Forecast
Issued by NWS Pendleton, OR

Home | Current Version | Previous Version | Text Only | Print | Product List | Glossary On
Versions: 1 2 3 4 5 6 7 8 9 10 11 12 13 14 15 16 17 18 19 20 21 22 23 24 25 26
199
FTUS46 KPDT 191650 AAB
TAFPDT
TAF AMD
KPDT 191650Z 1917/2012 VRB04KT 4SM -RA BR SCT040 BKN050 OVC080
     FM191800 23011KT P6SM BKN050 OVC090
     FM192300 22008KT 6SM -SHRA BR BKN050 OVC070
     FM200200 14006KT P6SM BKN080
     FM200900 14006KT 6SM -RA BR BKN035 OVC050=

USA.gov is the U.S. government's official web portal to all federal, state and local government web resources and services.